createdAt,value
2023-05-09T00:00:32.462Z,64.89
2023-05-09T00:02:58.996Z,64.94
2023-05-09T00:05:25.697Z,65.67
2023-05-09T00:07:52.141Z,65.54
2023-05-09T00:10:18.663Z,65.40
2023-05-09T00:12:45.112Z,65.34
2023-05-09T00:15:12.132Z,65.13
2023-05-09T00:17:38.862Z,65.77
2023-05-09T00:20:08.190Z,65.96
2023-05-09T00:22:34.614Z,65.71
2023-05-09T00:25:00.962Z,65.97
2023-05-09T00:27:27.321Z,65.93
2023-05-09T00:29:53.768Z,65.96
2023-05-09T00:32:20.147Z,66.10
2023-05-09T00:34:46.695Z,66.19
2023-05-09T00:37:13.093Z,66.29
2023-05-09T00:39:39.447Z,65.96
2023-05-09T00:42:05.871Z,65.91
2023-05-09T00:44:32.230Z,65.66
2023-05-09T00:46:58.630Z,66.16
2023-05-09T00:49:25.023Z,65.48
2023-05-09T00:51:51.592Z,65.74
2023-05-09T00:54:18.028Z,65.69
2023-05-09T00:56:45.078Z,65.63
2023-05-09T00:59:11.626Z,66.31
2023-05-09T01:01:38.135Z,65.62
2023-05-09T01:04:04.971Z,66.53
2023-05-09T01:06:42.689Z,65.78
2023-05-09T01:09:24.230Z,66.14
2023-05-09T01:12:44.338Z,66.41
2023-05-09T01:15:36.718Z,66.06
2023-05-09T01:18:21.343Z,66.28
2023-05-09T01:21:01.630Z,66.68
2023-05-09T01:23:55.005Z,66.07
2023-05-09T01:26:44.402Z,66.51
2023-05-09T01:29:47.176Z,66.62
2023-05-09T01:32:22.869Z,66.33
2023-05-09T01:34:54.333Z,66.16
2023-05-09T01:37:25.722Z,66.34
2023-05-09T01:39:56.070Z,66.37
2023-05-09T01:42:24.024Z,66.38
2023-05-09T01:44:50.936Z,65.93
2023-05-09T01:47:19.618Z,66.02
2023-05-09T01:49:47.686Z,65.90
2023-05-09T01:52:18.347Z,66.25
2023-05-09T01:54:45.825Z,66.33
2023-05-09T01:57:13.503Z,65.57
2023-05-09T01:59:44.573Z,65.67
2023-05-09T02:02:12.084Z,65.50
2023-05-09T02:04:41.516Z,65.46
2023-05-09T02:07:09.279Z,65.40
2023-05-09T02:09:35.964Z,66.22
2023-05-09T02:12:02.480Z,65.62
2023-05-09T02:14:28.860Z,65.77
2023-05-09T02:16:55.380Z,65.87
2023-05-09T02:19:21.776Z,65.75
2023-05-09T02:21:48.227Z,66.06
2023-05-09T02:24:14.804Z,65.92
2023-05-09T02:26:41.364Z,65.93
2023-05-09T02:29:08.441Z,65.71
2023-05-09T02:31:35.931Z,65.44
2023-05-09T02:34:04.144Z,66.23
2023-05-09T02:36:31.834Z,66.21
2023-05-09T02:38:58.560Z,66.34
2023-05-09T02:41:26.342Z,66.85
2023-05-09T02:43:52.721Z,67.27
2023-05-09T02:46:19.592Z,67.24
2023-05-09T02:48:46.014Z,67.83
2023-05-09T02:51:12.378Z,67.49
2023-05-09T02:53:38.768Z,68.02
2023-05-09T02:56:05.369Z,69.01
2023-05-09T02:58:31.747Z,68.68
2023-05-09T03:00:58.273Z,69.09
2023-05-09T03:03:24.674Z,69.56
2023-05-09T03:05:51.157Z,69.29
2023-05-09T03:08:17.523Z,69.61
2023-05-09T03:10:44.049Z,69.81
2023-05-09T03:13:10.424Z,69.89
2023-05-09T03:15:36.967Z,70.25
2023-05-09T03:18:03.756Z,70.73
2023-05-09T03:20:30.222Z,70.96
2023-05-09T03:22:56.597Z,70.90
2023-05-09T03:25:23.141Z,71.24
2023-05-09T03:27:49.504Z,70.97
2023-05-09T03:30:15.916Z,71.18
2023-05-09T03:32:42.312Z,71.07
2023-05-09T03:35:08.676Z,71.41
2023-05-09T03:37:35.048Z,71.47
2023-05-09T03:40:01.449Z,71.41
2023-05-09T03:42:27.797Z,71.76
2023-05-09T03:44:54.206Z,71.90
2023-05-09T03:47:20.561Z,71.61
2023-05-09T03:49:46.930Z,71.48
2023-05-09T03:52:13.904Z,71.33
2023-05-09T03:54:40.257Z,71.78
2023-05-09T03:57:06.762Z,71.88
2023-05-09T03:59:33.115Z,72.38
2023-05-09T04:01:59.574Z,71.89
2023-05-09T04:04:26.168Z,71.96
2023-05-09T04:06:52.684Z,71.46
2023-05-09T04:09:19.325Z,71.33
2023-05-09T04:11:45.692Z,71.53
2023-05-09T04:14:12.082Z,71.19
2023-05-09T04:16:38.509Z,70.72
2023-05-09T04:19:04.922Z,70.82
2023-05-09T04:21:31.322Z,71.37
2023-05-09T04:23:57.645Z,71.33
2023-05-09T04:26:24.061Z,70.45
2023-05-09T04:28:50.401Z,70.18
2023-05-09T04:31:16.835Z,69.86
2023-05-09T04:33:43.396Z,70.05
2023-05-09T04:36:09.754Z,69.74
2023-05-09T04:38:36.192Z,69.70
2023-05-09T04:41:02.633Z,70.13
2023-05-09T04:43:29.022Z,68.33
2023-05-09T04:45:55.563Z,69.14
2023-05-09T04:48:22.068Z,68.68
2023-05-09T04:50:48.417Z,68.70
2023-05-09T04:53:15.000Z,69.71
2023-05-09T04:55:41.374Z,69.31
2023-05-09T04:58:09.226Z,68.00
2023-05-09T05:00:35.797Z,68.38
2023-05-09T05:03:02.230Z,67.68
2023-05-09T05:05:28.909Z,68.27
2023-05-09T05:07:55.526Z,68.67
2023-05-09T05:10:21.920Z,67.82
2023-05-09T05:12:48.392Z,68.61
2023-05-09T05:15:15.143Z,66.60
2023-05-09T05:17:41.738Z,66.74
2023-05-09T05:20:08.458Z,67.08
2023-05-09T05:22:34.817Z,66.56
2023-05-09T05:25:01.219Z,66.00
2023-05-09T05:27:27.622Z,65.53
2023-05-09T05:29:54.000Z,65.38
2023-05-09T05:32:20.516Z,65.88
2023-05-09T05:34:46.967Z,65.55
2023-05-09T05:37:13.359Z,64.30
2023-05-09T05:39:39.743Z,63.67
2023-05-09T05:42:06.148Z,63.94
2023-05-09T05:44:32.589Z,64.21
2023-05-09T05:46:59.000Z,64.19
2023-05-09T05:49:25.353Z,62.92
2023-05-09T05:51:51.738Z,62.24
2023-05-09T05:54:19.392Z,61.45
2023-05-09T05:56:45.832Z,60.50
2023-05-09T05:59:13.372Z,60.22
2023-05-09T06:01:40.121Z,59.77
2023-05-09T06:04:06.608Z,58.41
2023-05-09T06:06:33.360Z,57.94
2023-05-09T06:08:59.978Z,57.31
2023-05-09T06:11:26.381Z,56.90
2023-05-09T06:13:52.759Z,55.07
2023-05-09T06:16:20.574Z,55.89
2023-05-09T06:18:47.704Z,54.98
2023-05-09T06:21:14.235Z,56.38
2023-05-09T06:23:47.285Z,54.77
2023-05-09T06:26:23.894Z,54.81
2023-05-09T06:28:50.407Z,53.81
2023-05-09T06:31:16.946Z,54.58
2023-05-09T06:33:43.348Z,53.47
2023-05-09T06:36:09.859Z,52.78
2023-05-09T06:38:36.262Z,52.43
2023-05-09T06:41:02.638Z,52.39
2023-05-09T06:43:29.126Z,52.14
2023-05-09T06:45:55.639Z,51.82
2023-05-09T06:48:22.194Z,51.63
2023-05-09T06:50:48.649Z,52.15
2023-05-09T06:53:15.105Z,52.34
2023-05-09T06:55:42.157Z,51.08
2023-05-09T06:58:08.587Z,53.33
2023-05-09T07:00:35.101Z,52.20
2023-05-09T07:03:01.519Z,51.66
2023-05-09T07:05:27.964Z,50.04
2023-05-09T07:07:54.373Z,51.54
2023-05-09T07:10:21.440Z,51.29
2023-05-09T07:12:48.128Z,48.26
2023-05-09T07:15:20.386Z,47.75
2023-05-09T07:17:52.277Z,47.66
2023-05-09T07:20:18.703Z,46.34
2023-05-09T07:22:45.161Z,47.21
2023-05-09T07:25:11.622Z,46.52
2023-05-09T07:27:38.240Z,47.26
2023-05-09T07:30:05.627Z,46.90
2023-05-09T07:32:32.483Z,46.38
2023-05-09T07:34:59.213Z,44.89
2023-05-09T07:37:25.565Z,47.66
2023-05-09T07:39:51.920Z,45.11
2023-05-09T07:42:18.441Z,43.90
2023-05-09T07:44:44.839Z,44.28
2023-05-09T07:47:11.211Z,44.44
2023-05-09T07:49:38.156Z,44.35
2023-05-09T07:52:04.705Z,44.53
2023-05-09T07:54:31.089Z,44.50
2023-05-09T07:56:57.508Z,42.08
2023-05-09T07:59:23.887Z,43.70
2023-05-09T08:01:50.398Z,42.75
2023-05-09T08:04:16.900Z,43.68
2023-05-09T08:06:43.321Z,41.69
2023-05-09T08:09:09.739Z,42.05
2023-05-09T08:11:36.445Z,41.38
2023-05-09T08:14:02.978Z,43.55
2023-05-09T08:16:29.468Z,40.39
2023-05-09T08:18:56.022Z,40.80
2023-05-09T08:21:22.882Z,41.37
2023-05-09T08:23:49.446Z,40.18
2023-05-09T08:26:16.041Z,41.16
2023-05-09T08:28:42.426Z,41.39
2023-05-09T08:31:08.884Z,40.68
2023-05-09T08:33:35.320Z,39.68
2023-05-09T08:36:02.020Z,40.02
2023-05-09T08:38:28.429Z,39.71
2023-05-09T08:41:01.402Z,41.06
2023-05-09T08:43:28.782Z,40.39
2023-05-09T08:45:59.513Z,40.65
2023-05-09T08:48:26.542Z,40.53
2023-05-09T08:50:52.825Z,40.24
2023-05-09T08:53:20.218Z,39.88
2023-05-09T08:55:46.703Z,40.53
2023-05-09T08:58:13.759Z,38.33
2023-05-09T09:00:41.449Z,38.05
2023-05-09T09:03:08.392Z,37.42
2023-05-09T09:05:41.943Z,37.27
2023-05-09T09:08:09.737Z,38.69
2023-05-09T09:10:40.466Z,37.49
2023-05-09T09:13:07.503Z,38.81
2023-05-09T09:15:36.283Z,38.29
2023-05-09T09:18:11.579Z,38.33
2023-05-09T09:20:47.841Z,36.74
2023-05-09T09:23:18.928Z,36.06
2023-05-09T09:25:48.463Z,36.09
2023-05-09T09:28:15.300Z,36.01
2023-05-09T09:30:45.082Z,35.51
2023-05-09T09:33:19.364Z,34.17
2023-05-09T09:35:45.734Z,33.36
2023-05-09T09:38:12.266Z,33.73
2023-05-09T09:40:38.654Z,33.72
2023-05-09T09:43:06.844Z,34.16
2023-05-09T09:45:33.235Z,33.19
2023-05-09T09:48:07.293Z,33.04
2023-05-09T09:50:33.854Z,32.13
2023-05-09T09:53:00.253Z,32.38
2023-05-09T09:55:26.947Z,31.53
2023-05-09T09:57:53.615Z,31.55
2023-05-09T10:00:26.134Z,33.70
2023-05-09T10:02:54.796Z,30.76
2023-05-09T10:05:24.894Z,30.95
2023-05-09T10:07:56.911Z,30.91
2023-05-09T10:10:32.307Z,32.71
2023-05-09T10:13:07.421Z,32.29
2023-05-09T10:15:49.428Z,30.97
2023-05-09T10:18:24.899Z,31.91
2023-05-09T10:20:52.446Z,32.06
2023-05-09T10:23:20.785Z,32.33
2023-05-09T10:25:58.201Z,30.87
2023-05-09T10:28:31.163Z,30.14
2023-05-09T10:31:28.041Z,30.80
2023-05-09T10:33:55.465Z,31.52
2023-05-09T10:36:22.868Z,31.23
2023-05-09T10:38:51.244Z,31.58
2023-05-09T10:41:17.988Z,30.78
2023-05-09T10:43:45.284Z,30.54
2023-05-09T10:46:13.074Z,31.19
2023-05-09T10:48:40.447Z,31.96
2023-05-09T10:51:07.685Z,30.03
2023-05-09T10:53:48.404Z,29.25
2023-05-09T10:56:33.733Z,31.89
2023-05-09T10:59:00.492Z,31.07
2023-05-09T11:01:30.846Z,29.22
2023-05-09T11:03:59.459Z,29.89
2023-05-09T11:06:44.346Z,29.86
2023-05-09T11:09:28.201Z,30.39
2023-05-09T11:12:07.557Z,31.80
2023-05-09T11:14:40.789Z,31.30
2023-05-09T11:17:09.548Z,31.14
2023-05-09T11:20:00.299Z,30.96
2023-05-09T11:22:30.777Z,29.24
2023-05-09T11:25:12.056Z,31.49
2023-05-09T11:27:43.941Z,29.81
2023-05-09T11:30:15.269Z,29.61
2023-05-09T11:32:52.198Z,29.53
2023-05-09T11:35:20.627Z,31.67
2023-05-09T11:37:51.162Z,30.06
2023-05-09T11:40:20.840Z,29.05
2023-05-09T11:42:54.054Z,31.03
2023-05-09T11:45:23.837Z,29.28
2023-05-09T11:47:51.529Z,29.78
2023-05-09T11:50:19.997Z,30.99
2023-05-09T11:52:47.952Z,30.32
2023-05-09T11:55:17.383Z,30.11
2023-05-09T11:57:50.258Z,28.10
2023-05-09T12:00:17.934Z,28.31
2023-05-09T12:02:45.498Z,29.75
2023-05-09T12:05:17.984Z,29.19
2023-05-09T12:07:45.054Z,28.01
2023-05-09T12:10:17.063Z,28.85
2023-05-09T12:12:48.388Z,28.45
2023-05-09T12:15:16.103Z,27.02
2023-05-09T12:17:44.481Z,27.01
2023-05-09T12:20:11.329Z,27.31
2023-05-09T12:22:38.415Z,28.92
2023-05-09T12:25:08.537Z,29.17
2023-05-09T12:27:37.073Z,27.45
2023-05-09T12:30:07.580Z,26.56
2023-05-09T12:32:36.076Z,26.71
2023-05-09T12:35:03.436Z,26.95
2023-05-09T12:37:31.404Z,30.09
2023-05-09T12:40:05.479Z,27.01
2023-05-09T12:42:36.137Z,27.21
2023-05-09T12:45:03.372Z,27.37
2023-05-09T12:47:32.091Z,27.63
2023-05-09T12:50:02.282Z,27.67
2023-05-09T12:53:02.899Z,27.53
2023-05-09T12:55:30.896Z,28.17
2023-05-09T12:57:59.703Z,28.69
2023-05-09T13:00:26.853Z,28.97
2023-05-09T13:02:54.187Z,27.93
2023-05-09T13:05:23.113Z,28.01
2023-05-09T13:07:54.986Z,27.75
2023-05-09T13:10:28.615Z,28.11
2023-05-09T13:12:55.208Z,27.70
2023-05-09T13:15:23.353Z,26.74
2023-05-09T13:17:51.443Z,28.10
2023-05-09T13:20:18.680Z,27.23
2023-05-09T13:22:46.623Z,28.20
2023-05-09T13:25:13.351Z,26.64
2023-05-09T13:27:42.156Z,28.69
2023-05-09T13:30:09.246Z,28.03
2023-05-09T13:32:36.381Z,27.66
2023-05-09T13:35:03.565Z,28.40
2023-05-09T13:37:30.045Z,28.45
2023-05-09T13:39:56.765Z,27.30
2023-05-09T13:42:23.111Z,26.42
2023-05-09T13:44:49.797Z,27.21
2023-05-09T13:47:16.614Z,26.46
2023-05-09T13:49:43.461Z,25.44
2023-05-09T13:52:09.910Z,25.87
2023-05-09T13:54:36.782Z,26.50
2023-05-09T13:57:04.546Z,27.31
2023-05-09T13:59:32.241Z,27.27
2023-05-09T14:01:59.885Z,26.97
2023-05-09T14:04:29.116Z,27.69
2023-05-09T14:06:57.910Z,26.69
2023-05-09T14:09:24.608Z,27.30
2023-05-09T14:11:52.719Z,27.26
2023-05-09T14:14:20.919Z,28.06
2023-05-09T14:16:49.417Z,27.95
2023-05-09T14:19:17.348Z,28.87
2023-05-09T14:21:46.307Z,28.00
2023-05-09T14:24:15.690Z,27.73
2023-05-09T14:26:42.771Z,27.72
2023-05-09T14:29:09.999Z,27.47
2023-05-09T14:31:36.959Z,28.61
2023-05-09T14:34:06.060Z,28.23
2023-05-09T14:36:32.793Z,28.46
2023-05-09T14:38:59.604Z,27.77
2023-05-09T14:41:26.246Z,28.62
2023-05-09T14:43:53.060Z,27.75
2023-05-09T14:46:19.772Z,27.85
2023-05-09T14:48:46.208Z,28.11
2023-05-09T14:51:13.223Z,28.92
2023-05-09T14:53:42.060Z,28.34
2023-05-09T14:56:10.010Z,28.60
2023-05-09T14:58:37.010Z,28.13
2023-05-09T15:01:03.970Z,28.26
2023-05-09T15:03:30.672Z,28.36
2023-05-09T15:05:57.377Z,28.82
2023-05-09T15:08:24.123Z,29.57
2023-05-09T15:10:59.389Z,29.55
2023-05-09T15:13:26.097Z,29.53
2023-05-09T15:15:52.660Z,29.87
2023-05-09T15:18:19.339Z,29.31
2023-05-09T15:20:45.872Z,30.52
2023-05-09T15:23:12.911Z,30.88
2023-05-09T15:25:44.149Z,30.71
2023-05-09T15:28:10.957Z,30.34
2023-05-09T15:30:38.483Z,29.95
2023-05-09T15:33:05.548Z,30.53
2023-05-09T15:35:32.417Z,31.07
2023-05-09T15:38:00.272Z,30.88
2023-05-09T15:40:27.723Z,31.41
2023-05-09T15:42:54.214Z,31.30
2023-05-09T15:45:20.684Z,31.16
2023-05-09T15:47:47.111Z,31.34
2023-05-09T15:50:14.057Z,31.44
2023-05-09T15:52:41.148Z,30.22
2023-05-09T15:55:08.137Z,30.62
2023-05-09T15:57:34.677Z,30.75
2023-05-09T16:00:01.593Z,30.97
2023-05-09T16:02:28.219Z,31.46
2023-05-09T16:04:54.697Z,32.17
2023-05-09T16:07:23.633Z,32.31
2023-05-09T16:09:50.364Z,32.95
2023-05-09T16:12:16.850Z,30.73
2023-05-09T16:14:43.347Z,31.47
2023-05-09T16:17:09.844Z,31.21
2023-05-09T16:19:36.422Z,32.32
2023-05-09T16:22:03.633Z,32.41
2023-05-09T16:24:30.347Z,32.70
2023-05-09T16:26:57.148Z,33.13
2023-05-09T16:29:23.728Z,33.18
2023-05-09T16:31:50.516Z,33.38
2023-05-09T16:34:17.004Z,33.19
2023-05-09T16:36:43.433Z,33.92
2023-05-09T16:39:10.277Z,33.89
2023-05-09T16:41:36.756Z,33.92
2023-05-09T16:44:03.428Z,33.75
2023-05-09T16:46:29.904Z,34.36
2023-05-09T16:48:56.460Z,33.90
2023-05-09T16:51:24.604Z,33.73
2023-05-09T16:53:51.344Z,33.34
2023-05-09T16:56:17.787Z,33.56
2023-05-09T16:58:44.906Z,34.08
2023-05-09T17:01:11.796Z,33.54
2023-05-09T17:03:38.300Z,33.69
2023-05-09T17:06:05.038Z,34.66
2023-05-09T17:08:31.438Z,33.19
2023-05-09T17:10:57.960Z,34.55
2023-05-09T17:13:24.661Z,34.04
2023-05-09T17:15:51.580Z,33.87
2023-05-09T17:18:33.163Z,34.05
2023-05-09T17:21:06.786Z,34.81
2023-05-09T17:23:33.507Z,34.53
2023-05-09T17:26:00.216Z,34.89
2023-05-09T17:28:26.991Z,34.91
2023-05-09T17:30:53.410Z,35.30
2023-05-09T17:33:20.225Z,35.71
2023-05-09T17:35:46.907Z,36.09
2023-05-09T17:38:15.576Z,35.52
2023-05-09T17:40:42.002Z,35.20
2023-05-09T17:43:08.702Z,35.86
2023-05-09T17:45:35.187Z,35.82
2023-05-09T17:48:01.958Z,36.91
2023-05-09T17:50:28.486Z,36.98
2023-05-09T17:52:56.986Z,37.69
2023-05-09T17:55:23.791Z,36.95
2023-05-09T17:57:50.704Z,37.66
2023-05-09T18:00:18.101Z,38.19
2023-05-09T18:02:44.805Z,38.21
2023-05-09T18:05:11.709Z,38.05
2023-05-09T18:07:39.560Z,38.29
2023-05-09T18:10:09.806Z,38.83
2023-05-09T18:12:37.393Z,38.70
2023-05-09T18:15:05.268Z,38.81
2023-05-09T18:17:32.367Z,38.99
2023-05-09T18:19:59.392Z,39.83
2023-05-09T18:22:26.242Z,38.99
2023-05-09T18:24:52.811Z,39.68
2023-05-09T18:27:20.667Z,39.86
2023-05-09T18:29:48.932Z,39.26
2023-05-09T18:32:15.538Z,39.57
2023-05-09T18:34:42.331Z,39.65
2023-05-09T18:37:13.551Z,40.46
2023-05-09T18:39:41.260Z,41.00
2023-05-09T18:42:07.917Z,41.02
2023-05-09T18:44:37.889Z,41.48
2023-05-09T18:47:04.672Z,40.83
2023-05-09T18:49:31.781Z,40.22
2023-05-09T18:51:58.328Z,40.95
2023-05-09T18:54:25.564Z,41.04
2023-05-09T18:56:53.868Z,41.26
2023-05-09T18:59:20.556Z,41.35
2023-05-09T19:01:47.420Z,41.67
2023-05-09T19:04:16.322Z,42.44
2023-05-09T19:06:43.466Z,42.24
2023-05-09T19:09:10.389Z,43.16
2023-05-09T19:11:37.192Z,43.11
2023-05-09T19:14:04.265Z,43.09
2023-05-09T19:16:31.132Z,42.83
2023-05-09T19:19:00.692Z,42.67
2023-05-09T19:21:28.474Z,42.76
2023-05-09T19:23:55.351Z,41.78
2023-05-09T19:26:22.192Z,42.53
2023-05-09T19:28:49.442Z,42.21
2023-05-09T19:31:16.284Z,41.32
2023-05-09T19:33:46.313Z,41.66
2023-05-09T19:36:13.792Z,41.86
2023-05-09T19:38:40.703Z,41.80
2023-05-09T19:41:07.665Z,42.23
2023-05-09T19:43:40.043Z,41.90
2023-05-09T19:46:07.277Z,43.28
2023-05-09T19:48:33.962Z,42.92
2023-05-09T19:51:00.747Z,42.53
2023-05-09T19:53:27.263Z,42.11
2023-05-09T19:55:53.916Z,42.14
2023-05-09T19:58:20.615Z,43.00
2023-05-09T20:00:48.626Z,42.71
2023-05-09T20:03:15.301Z,42.83
2023-05-09T20:05:42.155Z,42.94
2023-05-09T20:08:08.716Z,42.60
2023-05-09T20:10:35.492Z,43.87
2023-05-09T20:13:02.633Z,43.86
2023-05-09T20:15:29.382Z,43.37
2023-05-09T20:17:55.947Z,43.99
2023-05-09T20:20:23.651Z,44.08
2023-05-09T20:22:50.394Z,44.68
2023-05-09T20:25:16.990Z,45.06
2023-05-09T20:27:43.841Z,45.35
2023-05-09T20:30:11.020Z,45.45
2023-05-09T20:32:37.688Z,45.60
2023-05-09T20:35:04.799Z,45.19
2023-05-09T20:37:31.520Z,45.05
2023-05-09T20:39:58.125Z,44.70
2023-05-09T20:42:24.802Z,44.44
2023-05-09T20:44:53.297Z,45.69
2023-05-09T20:47:20.023Z,46.19
2023-05-09T20:49:46.882Z,46.24
2023-05-09T20:52:15.181Z,46.18
2023-05-09T20:54:43.198Z,46.67
2023-05-09T20:57:10.073Z,46.73
2023-05-09T20:59:38.680Z,47.06
2023-05-09T21:02:05.360Z,47.11
2023-05-09T21:04:32.228Z,47.80
2023-05-09T21:06:59.175Z,47.32
2023-05-09T21:09:25.566Z,47.37
2023-05-09T21:11:52.027Z,47.19
2023-05-09T21:14:18.810Z,48.07
2023-05-09T21:16:45.323Z,47.96
2023-05-09T21:19:12.093Z,47.58
2023-05-09T21:21:38.773Z,47.76
2023-05-09T21:24:05.902Z,48.47
2023-05-09T21:26:32.370Z,47.96
2023-05-09T21:28:59.231Z,48.66
2023-05-09T21:31:25.959Z,48.59
2023-05-09T21:33:52.554Z,48.92
2023-05-09T21:36:19.264Z,48.94
2023-05-09T21:38:45.801Z,49.18
2023-05-09T21:41:12.277Z,48.96
2023-05-09T21:43:38.939Z,49.47
2023-05-09T21:46:05.948Z,49.22
2023-05-09T21:48:32.749Z,50.33
2023-05-09T21:51:03.230Z,50.30
2023-05-09T21:53:29.965Z,50.32
2023-05-09T21:55:56.841Z,50.28
2023-05-09T21:58:23.589Z,51.14
2023-05-09T22:00:50.320Z,50.59
2023-05-09T22:03:17.193Z,50.69
2023-05-09T22:05:44.090Z,50.81
2023-05-09T22:08:10.585Z,51.88
2023-05-09T22:10:37.184Z,51.97
2023-05-09T22:13:03.955Z,52.42
2023-05-09T22:15:30.624Z,52.46
2023-05-09T22:17:57.200Z,52.57
2023-05-09T22:20:23.977Z,52.74
2023-05-09T22:22:50.447Z,52.61
2023-05-09T22:25:17.545Z,52.80
2023-05-09T22:27:44.121Z,53.25
2023-05-09T22:30:13.213Z,53.60
2023-05-09T22:32:40.496Z,53.35
2023-05-09T22:35:07.300Z,53.90
2023-05-09T22:37:33.942Z,53.96
2023-05-09T22:40:00.733Z,53.91
2023-05-09T22:42:27.973Z,54.40
2023-05-09T22:44:54.736Z,54.54
2023-05-09T22:47:21.522Z,54.76
2023-05-09T22:49:49.394Z,54.51
2023-05-09T22:52:15.982Z,55.07
2023-05-09T22:54:43.025Z,54.85
2023-05-09T22:57:09.791Z,55.86
2023-05-09T22:59:36.980Z,55.83
2023-05-09T23:02:04.016Z,56.05
2023-05-09T23:04:30.514Z,56.46
2023-05-09T23:06:57.324Z,56.45
2023-05-09T23:09:24.455Z,57.48
2023-05-09T23:11:51.102Z,56.59
2023-05-09T23:14:17.977Z,56.91
2023-05-09T23:16:44.689Z,57.14
2023-05-09T23:19:11.369Z,57.38
2023-05-09T23:21:37.907Z,57.63
2023-05-09T23:24:04.843Z,57.55
2023-05-09T23:26:31.582Z,58.48
2023-05-09T23:28:58.427Z,58.77
2023-05-09T23:31:25.188Z,59.14
2023-05-09T23:33:51.850Z,58.85
2023-05-09T23:36:18.501Z,59.22
2023-05-09T23:38:45.910Z,59.39
2023-05-09T23:41:12.629Z,59.22
2023-05-09T23:43:39.378Z,59.55
2023-05-09T23:46:07.519Z,59.33
2023-05-09T23:48:34.251Z,59.83
2023-05-09T23:51:00.692Z,60.61
2023-05-09T23:53:27.499Z,60.49
2023-05-09T23:55:53.984Z,60.22
2023-05-09T23:58:21.098Z,61.15
